Time;durP1;ratioP1;P1;durP2;ratioP2;P2;SDS_P1;SDS_P2;PMS_P1;PMS_P2;Temp;Humidity;BMP_temperature;BMP_pressure;BME280_temperature;BME280_humidity;BME280_pressure;Samples;Min_cycle;Max_cycle;Signal;HPM_P1;HPM_P2
2022/11/29 00:00:00;;;;;;;227.98;26.95;;;8.40;99.90;;;;;;5112391;28;20455;-62
2022/11/29 00:02:26;;;;;;;126.93;22.63;;;8.50;99.90;;;;;;5112460;28;20036;-63
2022/11/29 00:04:51;;;;;;;71.07;18.73;;;8.40;99.90;;;;;;5112205;28;20035;-62
2022/11/29 00:07:17;;;;;;;156.57;22.65;;;8.30;99.90;;;;;;5112167;28;20512;-62
2022/11/29 00:09:43;;;;;;;92.05;22.23;;;8.50;99.90;;;;;;5112280;28;20047;-63
2022/11/29 00:12:11;;;;;;;79.13;19.33;;;8.30;99.90;;;;;;5112551;28;20031;-63
2022/11/29 00:14:37;;;;;;;172.87;23.73;;;8.30;99.90;;;;;;5110376;28;20043;-63
2022/11/29 00:17:03;;;;;;;110.90;22.08;;;8.40;99.90;;;;;;5110014;28;20758;-63
2022/11/29 00:19:30;;;;;;;110.15;19.40;;;8.40;99.90;;;;;;5109771;28;20445;-63
2022/11/29 00:21:56;;;;;;;133.32;20.98;;;8.30;99.90;;;;;;5109898;28;20787;-63
2022/11/29 00:24:22;;;;;;;117.78;18.88;;;8.30;99.90;;;;;;5112082;28;20040;-63
2022/11/29 00:26:48;;;;;;;73.38;18.20;;;8.20;99.90;;;;;;5112025;28;20039;-62
2022/11/29 00:29:13;;;;;;;93.65;20.13;;;8.30;99.90;;;;;;5112050;28;20065;-63
2022/11/29 00:31:40;;;;;;;98.03;20.60;;;8.30;99.90;;;;;;5111772;28;20062;-62
2022/11/29 00:34:06;;;;;;;54.70;17.70;;;8.30;99.90;;;;;;5111974;28;20055;-64
2022/11/29 00:36:33;;;;;;;68.75;18.10;;;8.40;99.90;;;;;;5111986;28;20161;-63
2022/11/29 00:38:59;;;;;;;71.55;18.10;;;8.20;99.90;;;;;;5112046;28;20051;-62
2022/11/29 00:41:26;;;;;;;132.38;20.15;;;8.40;99.90;;;;;;5112093;28;20035;-63
2022/11/29 00:43:52;;;;;;;144.48;20.27;;;8.20;99.90;;;;;;5110946;28;20036;-62
2022/11/29 00:46:18;;;;;;;52.83;17.15;;;8.20;99.90;;;;;;5109523;28;20047;-63
2022/11/29 00:48:44;;;;;;;124.25;20.20;;;8.30;99.90;;;;;;5109431;28;20035;-63
2022/11/29 00:51:09;;;;;;;135.50;21.52;;;8.20;99.90;;;;;;5111942;28;20027;-63
2022/11/29 00:53:35;;;;;;;184.30;23.70;;;8.20;99.90;;;;;;5111761;28;20032;-63
2022/11/29 00:56:01;;;;;;;68.07;19.13;;;8.10;99.90;;;;;;5111847;28;20089;-62
2022/11/29 00:58:27;;;;;;;102.40;20.15;;;8.10;99.90;;;;;;5112158;28;20043;-63
2022/11/29 01:00:54;;;;;;;126.63;22.08;;;8.30;99.90;;;;;;5111575;28;20042;-63
2022/11/29 01:03:20;;;;;;;86.55;18.80;;;8.10;99.90;;;;;;5111937;28;20515;-63
2022/11/29 01:05:47;;;;;;;98.40;20.17;;;8.30;99.90;;;;;;5111787;28;20032;-63
2022/11/29 01:08:13;;;;;;;71.55;19.25;;;8.10;99.90;;;;;;5111699;28;20054;-63
2022/11/29 01:10:39;;;;;;;59.60;17.98;;;8.10;99.90;;;;;;5111651;28;20110;-63
2022/11/29 01:13:05;;;;;;;129.23;20.05;;;8.20;99.90;;;;;;5111710;28;20446;-63
2022/11/29 01:15:34;;;;;;;88.63;20.02;;;8.30;99.90;;;;;;5109553;28;20031;-63
2022/11/29 01:18:00;;;;;;;86.57;19.05;;;8.10;99.90;;;;;;5091497;28;20406;-63
2022/11/29 01:20:26;;;;;;;74.53;18.63;;;8.20;99.90;;;;;;5110398;28;20040;-62
2022/11/29 01:22:53;;;;;;;58.40;17.45;;;8.20;99.90;;;;;;5111629;28;20372;-63
2022/11/29 01:25:19;;;;;;;138.85;23.05;;;8.10;99.90;;;;;;5111649;28;20189;-63
2022/11/29 01:27:45;;;;;;;57.33;19.30;;;8.10;99.90;;;;;;5111701;28;20208;-63
2022/11/29 01:30:11;;;;;;;62.80;19.75;;;8.20;99.90;;;;;;5111797;28;20142;-63
2022/11/29 01:32:37;;;;;;;91.50;20.65;;;8.10;99.90;;;;;;5111455;28;20055;-64
2022/11/29 01:35:04;;;;;;;106.82;22.20;;;8.20;99.90;;;;;;5115470;28;20036;-62
2022/11/29 01:37:30;;;;;;;97.82;21.27;;;8.20;99.90;;;;;;5115115;28;20110;-63
2022/11/29 01:39:55;;;;;;;76.13;19.52;;;8.00;99.90;;;;;;5115109;28;20115;-63
2022/11/29 01:42:21;;;;;;;125.30;20.17;;;8.20;99.90;;;;;;5114890;28;20089;-63
2022/11/29 01:45:17;;;;;;;79.22;21.08;;;8.20;99.90;;;;;;5095369;28;20061;-63
2022/11/29 01:47:46;;;;;;;88.75;20.35;;;8.30;99.90;;;;;;5111303;28;20085;-63
2022/11/29 01:50:12;;;;;;;57.70;19.30;;;8.20;99.90;;;;;;5113078;28;20059;-63
2022/11/29 01:52:38;;;;;;;65.93;19.08;;;8.10;99.90;;;;;;5113099;28;20027;-62
2022/11/29 01:55:06;;;;;;;43.88;16.98;;;8.20;99.90;;;;;;5114648;28;20066;-63
2022/11/29 01:57:33;;;;;;;100.82;21.75;;;8.20;99.90;;;;;;5114623;28;20386;-62
2022/11/29 02:00:20;;;;;;;70.95;19.73;;;8.20;99.90;;;;;;5096288;28;20032;-63
2022/11/29 02:03:00;;;;;;;48.75;17.70;;;8.00;99.90;;;;;;5114465;28;20059;-62
2022/11/29 02:05:26;;;;;;;58.80;18.50;;;8.20;99.90;;;;;;5114423;28;20039;-62
2022/11/29 02:07:56;;;;;;;68.20;19.23;;;8.00;99.90;;;;;;5114460;28;20107;-63
2022/11/29 02:10:35;;;;;;;57.60;18.02;;;8.00;99.90;;;;;;5114622;28;20068;-63
2022/11/29 02:13:15;;;;;;;76.32;21.58;;;8.00;99.90;;;;;;5114452;28;20031;-63
2022/11/29 02:16:02;;;;;;;78.38;19.58;;;8.00;99.90;;;;;;5114334;28;20093;-63
2022/11/29 02:18:54;;;;;;;72.15;18.55;;;8.20;99.90;;;;;;5095871;28;20044;-63
2022/11/29 02:21:46;;;;;;;71.20;21.30;;;7.90;99.90;;;;;;5114375;28;20156;-63
2022/11/29 02:24:35;;;;;;;68.63;19.00;;;8.00;99.90;;;;;;5114219;28;20122;-63
2022/11/29 02:27:41;;;;;;;65.43;18.85;;;8.00;99.90;;;;;;5113911;28;20482;-64
2022/11/29 02:30:22;;;;;;;71.22;20.00;;;8.20;99.90;;;;;;5113884;28;20048;-63
2022/11/29 02:33:06;;;;;;;41.38;17.70;;;8.00;99.90;;;;;;5113616;28;20047;-63
2022/11/29 02:35:47;;;;;;;53.88;17.83;;;8.10;99.90;;;;;;5114000;28;20161;-63
2022/11/29 02:38:24;;;;;;;50.63;18.98;;;8.20;99.90;;;;;;5113925;28;20043;-63
2022/11/29 02:41:10;;;;;;;40.70;18.77;;;7.90;99.90;;;;;;5113830;28;20248;-63
2022/11/29 02:43:48;;;;;;;54.47;19.40;;;8.00;99.90;;;;;;5113451;28;20051;-63
2022/11/29 02:46:35;;;;;;;51.72;18.98;;;8.00;99.90;;;;;;5113755;28;20078;-63
2022/11/29 02:49:35;;;;;;;63.63;19.75;;;8.10;99.90;;;;;;5113662;28;20047;-63
2022/11/29 02:52:05;;;;;;;40.85;18.65;;;7.90;99.90;;;;;;5113423;28;20504;-64
2022/11/29 02:54:37;;;;;;;53.92;18.67;;;8.00;99.90;;;;;;5113784;28;20040;-63
2022/11/29 02:57:13;;;;;;;45.55;18.60;;;7.90;99.90;;;;;;5113625;28;20043;-63
2022/11/29 03:00:08;;;;;;;44.38;18.45;;;7.90;99.90;;;;;;5113293;28;20481;-63
2022/11/29 03:03:02;;;;;;;33.60;17.17;;;8.00;99.90;;;;;;5011013;28;20053;-63
2022/11/29 03:05:33;;;;;;;41.30;17.38;;;7.90;99.90;;;;;;5010811;28;20116;-63
2022/11/29 03:08:56;;;;;;;42.08;17.67;;;7.90;99.90;;;;;;5010921;28;20041;-63
2022/11/29 03:11:36;;;;;;;69.07;18.83;;;7.90;99.90;;;;;;4933359;29;20043;-63
2022/11/29 03:14:05;;;;;;;47.17;16.90;;;7.80;99.90;;;;;;4933273;29;20546;-63
2022/11/29 03:16:45;;;;;;;31.45;17.23;;;7.80;99.90;;;;;;4933144;29;20446;-63
2022/11/29 03:19:45;;;;;;;67.97;19.10;;;7.90;99.90;;;;;;4933253;29;20066;-63
2022/11/29 03:22:35;;;;;;;64.22;19.45;;;8.00;99.90;;;;;;4933345;29;20568;-63
2022/11/29 03:25:12;;;;;;;35.53;18.58;;;7.80;99.90;;;;;;4932902;29;20087;-63
2022/11/29 03:28:01;;;;;;;50.45;17.55;;;7.80;99.90;;;;;;4932993;29;20051;-63
2022/11/29 03:30:30;;;;;;;33.92;16.90;;;7.90;99.90;;;;;;4932766;29;20171;-63
2022/11/29 03:33:07;;;;;;;40.87;17.87;;;7.80;99.90;;;;;;4932694;29;20055;-63
2022/11/29 03:35:52;;;;;;;29.45;16.38;;;7.90;99.90;;;;;;4932894;29;20122;-63
2022/11/29 03:38:20;;;;;;;27.05;15.27;;;7.90;99.90;;;;;;4955160;28;20064;-63
2022/11/29 03:41:19;;;;;;;45.03;17.02;;;7.70;99.90;;;;;;5030103;28;20104;-63
2022/11/29 03:43:48;;;;;;;39.40;17.83;;;7.70;99.90;;;;;;5029784;28;20559;-63
2022/11/29 03:46:33;;;;;;;44.85;19.00;;;7.80;99.90;;;;;;5046229;28;20059;-64
2022/11/29 03:49:04;;;;;;;29.83;16.27;;;7.80;99.90;;;;;;5112622;28;20100;-63
2022/11/29 03:52:08;;;;;;;30.85;16.35;;;7.60;99.90;;;;;;5094184;28;20105;-63
2022/11/29 03:54:54;;;;;;;36.95;17.67;;;7.80;99.90;;;;;;5094502;28;20124;-63
2022/11/29 03:57:30;;;;;;;54.28;18.83;;;7.70;99.90;;;;;;5111857;28;20072;-63
2022/11/29 04:00:04;;;;;;;24.63;14.65;;;7.70;99.90;;;;;;5112455;28;20057;-63
2022/11/29 04:02:47;;;;;;;46.60;16.90;;;7.80;99.90;;;;;;5112252;28;20048;-63
2022/11/29 04:05:43;;;;;;;29.52;16.08;;;7.80;99.90;;;;;;5112696;28;20044;-63
2022/11/29 04:08:39;;;;;;;23.88;14.98;;;7.60;99.90;;;;;;5009851;28;20050;-63
2022/11/29 04:11:32;;;;;;;56.05;15.05;;;7.60;99.90;;;;;;5009819;28;20045;-63
2022/11/29 04:14:21;;;;;;;46.72;16.17;;;7.60;99.90;;;;;;5009951;28;20069;-63
2022/11/29 04:17:21;;;;;;;23.67;14.55;;;7.60;99.90;;;;;;5010219;28;20255;-63
2022/11/29 04:19:47;;;;;;;29.42;15.20;;;7.60;99.90;;;;;;5009680;28;20496;-64
2022/11/29 04:22:38;;;;;;;29.00;15.18;;;7.70;99.90;;;;;;5009711;28;20069;-63
2022/11/29 04:25:22;;;;;;;38.00;14.98;;;7.50;99.90;;;;;;4932139;29;20368;-64
2022/11/29 04:28:15;;;;;;;32.80;15.02;;;7.60;99.90;;;;;;4932360;29;20052;-63
2022/11/29 04:31:16;;;;;;;38.63;16.35;;;7.50;99.90;;;;;;4932310;29;20048;-63
2022/11/29 04:34:00;;;;;;;34.92;14.23;;;7.50;99.90;;;;;;4931987;29;20135;-63
2022/11/29 04:36:52;;;;;;;22.98;14.38;;;7.50;99.90;;;;;;4932295;29;20048;-63
2022/11/29 04:39:29;;;;;;;29.20;14.32;;;7.50;99.90;;;;;;4932197;29;20062;-63
2022/11/29 04:42:06;;;;;;;29.67;13.73;;;7.50;99.90;;;;;;4932071;29;20604;-63
2022/11/29 04:44:54;;;;;;;36.50;14.30;;;7.30;99.90;;;;;;4955531;28;20045;-63
2022/11/29 04:47:34;;;;;;;26.05;14.27;;;7.30;99.90;;;;;;5029223;28;20143;-63
2022/11/29 04:50:26;;;;;;;30.10;14.45;;;7.30;99.90;;;;;;5012987;28;20046;-63
2022/11/29 04:53:22;;;;;;;36.47;14.85;;;7.30;99.90;;;;;;5029284;28;20373;-63
2022/11/29 04:56:12;;;;;;;31.40;15.48;;;7.40;99.90;;;;;;5029025;28;20084;-63
2022/11/29 04:58:47;;;;;;;42.63;15.35;;;7.30;99.90;;;;;;5029147;28;20041;-63
2022/11/29 05:01:24;;;;;;;36.08;13.98;;;7.30;99.90;;;;;;5035809;28;20052;-63
2022/11/29 05:04:01;;;;;;;28.15;14.32;;;7.40;99.90;;;;;;5071344;28;20475;-63
2022/11/29 05:06:54;;;;;;;25.00;13.60;;;7.40;99.90;;;;;;5071079;28;20049;-63
2022/11/29 05:10:12;;;;;;;36.65;15.45;;;7.40;99.90;;;;;;5074828;28;20502;-64
2022/11/29 05:12:47;;;;;;;23.80;14.05;;;7.30;99.90;;;;;;5032845;28;20107;-63
2022/11/29 05:15:50;;;;;;;25.40;14.43;;;7.40;99.90;;;;;;5032950;28;20057;-63
2022/11/29 05:18:44;;;;;;;24.50;12.23;;;7.20;99.90;;;;;;5032718;28;20094;-63
2022/11/29 05:21:22;;;;;;;29.40;13.30;;;7.20;99.90;;;;;;5032700;28;20108;-63
2022/11/29 05:24:10;;;;;;;20.88;12.20;;;7.20;99.90;;;;;;5032453;28;20042;-64
2022/11/29 05:26:41;;;;;;;30.38;13.20;;;7.30;99.90;;;;;;5015965;28;20139;-63
2022/11/29 05:29:14;;;;;;;25.77;12.32;;;7.20;99.90;;;;;;5032555;28;20041;-63
2022/11/29 05:31:51;;;;;;;19.15;11.50;;;7.30;99.90;;;;;;5034500;28;20427;-63
2022/11/29 05:34:35;;;;;;;24.02;12.95;;;7.30;99.90;;;;;;5052326;28;20045;-64
2022/11/29 05:37:21;;;;;;;18.63;11.75;;;7.20;99.90;;;;;;5052270;28;20045;-63
2022/11/29 05:40:08;;;;;;;26.45;11.80;;;7.00;99.90;;;;;;5052114;28;20455;-63
2022/11/29 05:42:55;;;;;;;21.52;11.98;;;7.20;99.90;;;;;;5051812;28;20131;-63
2022/11/29 05:45:38;;;;;;;24.70;13.18;;;7.10;99.90;;;;;;5051216;28;20509;-64
2022/11/29 05:48:12;;;;;;;19.92;13.05;;;7.20;99.90;;;;;;5092342;28;20092;-63
2022/11/29 05:50:44;;;;;;;26.13;13.00;;;7.00;99.90;;;;;;5092385;28;20043;-63
2022/11/29 05:53:22;;;;;;;24.35;12.60;;;7.10;99.90;;;;;;5094367;28;20122;-63
2022/11/29 05:55:55;;;;;;;26.00;13.55;;;7.00;99.90;;;;;;5094317;28;20584;-63
2022/11/29 05:59:04;;;;;;;36.03;14.15;;;7.00;99.90;;;;;;5094345;28;20078;-63
2022/11/29 06:01:42;;;;;;;23.95;11.98;;;7.00;99.90;;;;;;5012011;28;20140;-63
2022/11/29 06:04:31;;;;;;;25.95;13.85;;;7.10;99.90;;;;;;5012098;28;20583;-63
2022/11/29 06:07:13;;;;;;;29.67;13.50;;;6.90;99.90;;;;;;5012029;28;20073;-63
2022/11/29 06:09:52;;;;;;;21.25;12.90;;;7.00;99.90;;;;;;5011882;28;20042;-63
2022/11/29 06:12:23;;;;;;;26.15;12.93;;;7.00;99.90;;;;;;5012221;28;20067;-63
2022/11/29 06:15:00;;;;;;;21.30;12.73;;;7.00;99.90;;;;;;5011736;28;20041;-63
2022/11/29 06:17:31;;;;;;;21.98;12.45;;;7.00;99.90;;;;;;5011816;28;20049;-63
2022/11/29 06:20:14;;;;;;;22.80;12.82;;;7.10;99.90;;;;;;5010936;28;20046;-64
2022/11/29 06:23:16;;;;;;;22.20;12.75;;;7.10;99.90;;;;;;5011734;28;20451;-63
2022/11/29 06:25:57;;;;;;;23.63;11.75;;;7.10;99.90;;;;;;5011642;28;20046;-63
2022/11/29 06:28:25;;;;;;;18.60;12.52;;;7.00;99.90;;;;;;5011911;28;20041;-63
2022/11/29 06:30:53;;;;;;;19.65;10.95;;;6.90;99.90;;;;;;5011616;28;20054;-63
2022/11/29 06:33:44;;;;;;;21.20;11.75;;;7.00;99.90;;;;;;5011336;28;20061;-63
2022/11/29 06:36:14;;;;;;;21.13;11.02;;;7.00;99.90;;;;;;4995506;28;20034;-64
2022/11/29 06:38:41;;;;;;;18.98;11.48;;;7.10;99.90;;;;;;5078139;28;20086;-63
2022/11/29 06:41:15;;;;;;;22.50;11.60;;;7.00;99.90;;;;;;5092782;28;20128;-63
2022/11/29 06:43:41;;;;;;;17.83;10.85;;;7.00;99.90;;;;;;5093485;28;20050;-63
2022/11/29 06:46:25;;;;;;;20.15;10.85;;;7.00;99.90;;;;;;5084057;28;20037;-63
2022/11/29 06:49:16;;;;;;;20.55;11.02;;;7.00;99.90;;;;;;5071374;28;20037;-63
2022/11/29 06:52:03;;;;;;;19.65;11.02;;;7.00;99.90;;;;;;5065690;28;20123;-64
2022/11/29 06:54:53;;;;;;;18.65;11.02;;;7.10;99.90;;;;;;5070836;28;20041;-63
2022/11/29 06:57:42;;;;;;;17.80;10.25;;;6.90;99.90;;;;;;5072799;28;20509;-63
2022/11/29 07:00:25;;;;;;;21.20;12.02;;;7.00;99.90;;;;;;5073074;28;20387;-63
2022/11/29 07:03:10;;;;;;;18.73;10.98;;;7.00;99.90;;;;;;5073083;28;20040;-63
2022/11/29 07:05:37;;;;;;;21.45;11.60;;;7.00;99.90;;;;;;5072249;28;20487;-63
2022/11/29 07:08:21;;;;;;;20.40;11.23;;;7.10;99.90;;;;;;5072524;28;20085;-64
2022/11/29 07:10:49;;;;;;;21.13;11.90;;;7.00;99.90;;;;;;5072809;28;20048;-63
2022/11/29 07:13:16;;;;;;;18.83;10.50;;;7.00;99.90;;;;;;5072679;28;20041;-63
2022/11/29 07:16:01;;;;;;;25.50;11.35;;;6.90;99.90;;;;;;5074664;28;20044;-63
2022/11/29 07:18:32;;;;;;;21.02;11.07;;;7.00;99.90;;;;;;5090612;28;20161;-65
2022/11/29 07:21:17;;;;;;;23.58;11.88;;;6.90;99.90;;;;;;5090873;28;20043;-65
2022/11/29 07:24:07;;;;;;;17.83;11.30;;;7.10;99.90;;;;;;5092457;28;20066;-65
2022/11/29 07:26:40;;;;;;;19.35;10.27;;;7.10;99.90;;;;;;5092672;28;20059;-64
2022/11/29 07:29:27;;;;;;;22.83;10.75;;;7.00;99.90;;;;;;5092921;28;20039;-65
2022/11/29 07:32:21;;;;;;;23.90;12.05;;;7.00;99.90;;;;;;5095653;28;20371;-65
2022/11/29 07:34:49;;;;;;;24.17;10.57;;;7.20;99.90;;;;;;5113102;28;20043;-64
2022/11/29 07:37:43;;;;;;;17.65;10.88;;;7.10;99.90;;;;;;5112748;28;20489;-64
2022/11/29 07:40:22;;;;;;;16.90;10.13;;;6.90;99.90;;;;;;5112589;28;20039;-64
2022/11/29 07:43:13;;;;;;;17.70;10.35;;;7.10;99.90;;;;;;5112586;28;20375;-65
2022/11/29 07:45:39;;;;;;;19.48;10.40;;;7.00;99.90;;;;;;5111784;28;20380;-65
2022/11/29 07:48:05;;;;;;;18.45;10.75;;;7.10;99.90;;;;;;5110363;28;20114;-65
2022/11/29 07:50:31;;;;;;;21.95;10.82;;;7.00;99.90;;;;;;5110694;28;20074;-65
2022/11/29 07:52:58;;;;;;;16.70;10.13;;;6.90;99.90;;;;;;5111593;28;20062;-65
2022/11/29 07:55:25;;;;;;;19.90;10.55;;;6.90;99.90;;;;;;5112267;28;20118;-65
2022/11/29 07:57:51;;;;;;;19.13;10.98;;;6.80;99.90;;;;;;5112333;28;20035;-65
2022/11/29 08:00:18;;;;;;;22.00;10.57;;;6.90;99.90;;;;;;5112637;28;20047;-65
2022/11/29 08:02:46;;;;;;;19.35;10.77;;;7.00;99.90;;;;;;5112255;28;20057;-65
2022/11/29 08:05:11;;;;;;;23.70;10.27;;;7.10;99.90;;;;;;5112171;28;20027;-65
2022/11/29 08:07:38;;;;;;;18.55;10.70;;;7.00;99.90;;;;;;5112295;28;20050;-65
2022/11/29 08:10:10;;;;;;;20.83;11.50;;;7.10;99.90;;;;;;5112331;28;20061;-65
2022/11/29 08:12:40;;;;;;;19.58;11.35;;;7.00;99.90;;;;;;5112200;28;20065;-65
2022/11/29 08:15:07;;;;;;;20.85;10.77;;;7.00;99.90;;;;;;5112413;28;20071;-65
2022/11/29 08:17:33;;;;;;;26.10;11.55;;;7.00;99.90;;;;;;5110585;28;20039;-65
2022/11/29 08:19:58;;;;;;;19.33;10.63;;;7.20;99.90;;;;;;5110466;28;20051;-65
2022/11/29 08:22:24;;;;;;;24.33;11.90;;;7.20;99.90;;;;;;5111899;28;20054;-65
2022/11/29 08:24:50;;;;;;;19.30;10.98;;;7.00;99.90;;;;;;5112074;28;20531;-65
2022/11/29 08:27:15;;;;;;;20.88;10.80;;;7.20;99.90;;;;;;5111764;28;20058;-65
2022/11/29 08:29:41;;;;;;;24.15;10.95;;;7.10;99.90;;;;;;5111956;28;20035;-64
2022/11/29 08:32:07;;;;;;;20.83;10.20;;;7.10;99.90;;;;;;5111739;28;20059;-65
2022/11/29 08:34:33;;;;;;;25.48;10.55;;;7.10;99.90;;;;;;5093702;28;20482;-65
2022/11/29 08:36:59;;;;;;;26.92;11.45;;;7.10;99.90;;;;;;5111986;28;20076;-65
2022/11/29 08:39:24;;;;;;;21.23;10.85;;;7.30;99.90;;;;;;5112017;28;20036;-65
2022/11/29 08:41:50;;;;;;;23.25;10.27;;;7.30;99.90;;;;;;5112374;28;20043;-65
2022/11/29 08:44:17;;;;;;;23.45;10.93;;;7.20;99.90;;;;;;5116424;28;20040;-65
2022/11/29 08:49:26;;;;;;;28.35;10.95;;;7.50;99.90;;;;;;5114654;28;20035;-64
2022/11/29 08:53:39;;;;;;;21.35;11.02;;;7.50;99.90;;;;;;5116046;28;20097;-64
2022/11/29 08:54:38;;;;;;;18.88;9.50;;;7.30;99.90;;;;;;5116017;28;20123;-64
2022/11/29 08:57:03;;;;;;;25.70;11.23;;;7.40;99.90;;;;;;5116051;28;20172;-64
2022/11/29 08:59:29;;;;;;;18.90;9.90;;;7.50;99.90;;;;;;5115894;28;20088;-64
2022/11/29 09:01:54;;;;;;;17.13;10.38;;;7.60;99.90;;;;;;5115860;28;20044;-64
2022/11/29 09:04:20;;;;;;;31.95;11.35;;;7.50;99.90;;;;;;5115725;28;20040;-65
2022/11/29 09:06:48;;;;;;;18.88;9.95;;;7.60;99.90;;;;;;5115410;28;20043;-65
2022/11/29 09:09:14;;;;;;;18.00;10.57;;;7.70;99.90;;;;;;5115793;28;20059;-64
2022/11/29 09:11:40;;;;;;;26.20;10.50;;;7.60;99.90;;;;;;5115819;28;20128;-65
2022/11/29 09:14:15;;;;;;;18.90;9.63;;;7.60;99.90;;;;;;5115587;28;20089;-65
2022/11/29 09:16:40;;;;;;;18.75;9.98;;;7.90;99.90;;;;;;5114983;28;20031;-64
2022/11/29 09:19:07;;;;;;;17.98;9.32;;;7.90;99.90;;;;;;5115423;28;20047;-64
2022/11/29 09:21:35;;;;;;;26.27;9.50;;;7.90;99.90;;;;;;5115758;28;20031;-64
2022/11/29 09:24:05;;;;;;;22.60;10.55;;;8.10;99.90;;;;;;5115785;28;20052;-64
2022/11/29 09:26:33;;;;;;;27.48;10.57;;;8.10;99.90;;;;;;5115721;28;20132;-64
2022/11/29 09:29:02;;;;;;;25.70;8.82;;;8.10;99.90;;;;;;5115952;28;20816;-64
2022/11/29 09:31:30;;;;;;;29.50;10.38;;;8.40;99.90;;;;;;5115691;28;20136;-64
2022/11/29 09:33:56;;;;;;;19.33;9.43;;;8.30;99.90;;;;;;5115819;28;20075;-64
2022/11/29 09:36:22;;;;;;;27.58;8.55;;;8.40;99.90;;;;;;5116003;28;20397;-63
2022/11/29 09:38:47;;;;;;;33.17;10.95;;;8.30;99.90;;;;;;5116051;28;20086;-64
2022/11/29 09:41:50;;;;;;;30.88;9.77;;;8.50;99.90;;;;;;5115978;28;20489;-63
2022/11/29 09:44:53;;;;;;;24.35;10.13;;;8.30;99.90;;;;;;5115842;28;20032;-64
2022/11/29 09:47:37;;;;;;;36.83;9.95;;;8.50;99.90;;;;;;5023098;28;20128;-63
2022/11/29 09:50:35;;;;;;;23.85;9.30;;;8.50;99.90;;;;;;5033052;28;20038;-64
2022/11/29 09:53:03;;;;;;;24.88;10.52;;;8.50;99.90;;;;;;5032379;28;20373;-64
2022/11/29 09:55:54;;;;;;;22.80;9.10;;;8.50;99.90;;;;;;5032234;28;20494;-63
2022/11/29 09:58:26;;;;;;;27.70;9.27;;;8.60;99.90;;;;;;5032827;28;20446;-64
2022/11/29 10:00:57;;;;;;;22.25;8.90;;;8.40;99.90;;;;;;5032698;28;20480;-63
2022/11/29 10:03:29;;;;;;;23.35;8.68;;;8.70;99.90;;;;;;5032908;28;20524;-63
2022/11/29 10:06:07;;;;;;;31.05;10.40;;;8.70;99.90;;;;;;5032713;28;20508;-63
2022/11/29 10:08:41;;;;;;;23.48;10.00;;;8.70;99.90;;;;;;5032636;28;20391;-63
2022/11/29 10:11:19;;;;;;;24.83;9.13;;;8.80;99.90;;;;;;5016015;28;20462;-63
2022/11/29 10:13:50;;;;;;;27.98;9.38;;;8.80;99.90;;;;;;5032514;28;20506;-63
2022/11/29 10:16:31;;;;;;;29.08;10.75;;;8.80;99.90;;;;;;5031959;28;20458;-63
2022/11/29 10:19:32;;;;;;;20.90;9.30;;;8.70;99.90;;;;;;5032771;28;20045;-64
2022/11/29 10:22:06;;;;;;;24.25;10.25;;;8.70;99.90;;;;;;5028480;28;20061;-63
2022/11/29 10:24:32;;;;;;;16.88;9.85;;;8.90;99.90;;;;;;5088795;28;20055;-64
2022/11/29 10:26:59;;;;;;;23.40;11.40;;;9.00;99.90;;;;;;5115025;28;20040;-63
2022/11/29 10:29:24;;;;;;;27.58;11.80;;;8.90;99.90;;;;;;5115202;28;20043;-64
2022/11/29 10:31:55;;;;;;;29.67;12.38;;;9.00;99.90;;;;;;5114977;28;20370;-63
2022/11/29 10:34:25;;;;;;;23.80;11.70;;;9.10;99.90;;;;;;5115003;28;20401;-63
2022/11/29 10:36:51;;;;;;;25.38;11.27;;;9.10;99.90;;;;;;5114599;28;20482;-63
2022/11/29 10:39:16;;;;;;;27.48;11.00;;;9.30;99.90;;;;;;5114988;28;20115;-64
2022/11/29 10:41:42;;;;;;;29.45;11.55;;;9.30;99.90;;;;;;5114685;28;20035;-63
2022/11/29 10:44:13;;;;;;;18.95;10.23;;;9.20;99.90;;;;;;5114761;28;20539;-64
2022/11/29 10:46:39;;;;;;;24.48;9.48;;;9.20;99.90;;;;;;5114276;28;20040;-63
2022/11/29 10:49:11;;;;;;;26.33;11.20;;;9.30;99.90;;;;;;5114866;28;20036;-63
2022/11/29 10:51:37;;;;;;;22.88;10.40;;;9.40;99.90;;;;;;5114683;28;20222;-63
2022/11/29 10:54:17;;;;;;;23.75;10.15;;;9.20;99.90;;;;;;5114788;28;20465;-63
2022/11/29 10:56:44;;;;;;;21.80;11.68;;;9.40;99.90;;;;;;5096354;28;20450;-63
2022/11/29 10:59:23;;;;;;;16.90;10.57;;;9.40;99.90;;;;;;5114682;28;20039;-63
2022/11/29 11:01:49;;;;;;;20.77;11.85;;;9.40;99.90;;;;;;5114753;28;20381;-63
2022/11/29 11:04:31;;;;;;;17.38;11.50;;;9.50;99.90;;;;;;5114291;28;20433;-63
2022/11/29 11:07:00;;;;;;;28.30;13.10;;;9.30;99.90;;;;;;5114501;28;20040;-63
2022/11/29 11:09:25;;;;;;;30.75;13.13;;;9.50;99.90;;;;;;5114463;28;20039;-63
2022/11/29 11:11:57;;;;;;;21.55;12.52;;;9.50;99.90;;;;;;5114276;28;20039;-63
2022/11/29 11:14:23;;;;;;;19.10;11.65;;;9.50;99.90;;;;;;5114279;28;20028;-63
2022/11/29 11:16:49;;;;;;;21.48;13.57;;;9.60;99.90;;;;;;5114131;28;20531;-63
2022/11/29 11:19:31;;;;;;;22.42;12.77;;;9.50;99.90;;;;;;5114325;28;20127;-63
2022/11/29 11:21:59;;;;;;;15.93;11.43;;;9.50;99.90;;;;;;5114106;28;20042;-64
2022/11/29 11:24:40;;;;;;;18.00;11.55;;;9.50;99.90;;;;;;5114183;28;20478;-63
2022/11/29 11:27:06;;;;;;;21.67;12.85;;;9.60;99.90;;;;;;5114248;28;20386;-62
2022/11/29 11:29:43;;;;;;;17.90;12.25;;;9.70;99.90;;;;;;5114133;28;20032;-63
2022/11/29 11:32:19;;;;;;;26.58;12.80;;;9.70;99.90;;;;;;5113923;28;20052;-63
2022/11/29 11:35:21;;;;;;;14.32;9.88;;;9.60;99.90;;;;;;5113620;28;20579;-63
2022/11/29 11:37:55;;;;;;;13.82;10.23;;;9.60;99.90;;;;;;5011366;28;20069;-62
2022/11/29 11:40:27;;;;;;;16.08;9.65;;;9.90;99.90;;;;;;5011149;28;20041;-63
2022/11/29 11:42:56;;;;;;;15.27;10.45;;;9.70;99.90;;;;;;5011456;28;20374;-63
2022/11/29 11:45:30;;;;;;;12.90;9.60;;;9.70;99.90;;;;;;5011302;28;20038;-63
2022/11/29 11:48:00;;;;;;;16.55;9.80;;;9.70;99.90;;;;;;5011215;28;20053;-63
2022/11/29 11:50:44;;;;;;;15.30;9.98;;;9.60;99.90;;;;;;5008036;28;20508;-63
2022/11/29 11:53:23;;;;;;;16.63;10.32;;;9.60;99.90;;;;;;5009465;28;20165;-63
2022/11/29 11:55:58;;;;;;;;;;;9.60;99.90;;;;;;5011188;28;20058;-63
2022/11/29 11:58:27;;;;;;;17.98;9.57;;;9.60;99.90;;;;;;5011159;28;19917;-63
2022/11/29 12:00:58;;;;;;;16.73;9.98;;;9.60;99.90;;;;;;4995051;28;20065;-63
2022/11/29 12:03:27;;;;;;;14.45;8.70;;;9.60;99.90;;;;;;5011057;28;20041;-63
2022/11/29 12:06:18;;;;;;;12.13;7.82;;;9.60;99.90;;;;;;5010844;28;20041;-63
2022/11/29 12:08:46;;;;;;;12.32;8.38;;;9.60;99.90;;;;;;5010755;28;20049;-63
2022/11/29 12:11:16;;;;;;;13.88;8.52;;;9.80;99.90;;;;;;5011167;28;20052;-63
2022/11/29 12:13:48;;;;;;;15.95;8.88;;;9.60;99.90;;;;;;5032359;28;20543;-62
2022/11/29 12:16:27;;;;;;;10.02;7.35;;;9.60;99.90;;;;;;5113366;28;20039;-63
2022/11/29 12:19:18;;;;;;;9.65;7.53;;;9.60;99.90;;;;;;5112467;28;20114;-62
2022/11/29 12:21:51;;;;;;;11.88;8.05;;;9.60;99.90;;;;;;5110246;28;20035;-63
2022/11/29 12:24:35;;;;;;;10.80;7.22;;;9.50;99.90;;;;;;5112938;28;20096;-63
2022/11/29 12:27:03;;;;;;;8.75;7.00;;;9.50;99.90;;;;;;5113429;28;20046;-62
2022/11/29 12:29:32;;;;;;;8.35;6.57;;;9.60;99.90;;;;;;5113405;28;20114;-63
2022/11/29 12:32:19;;;;;;;12.15;7.57;;;9.50;99.90;;;;;;5113082;28;20081;-63
2022/11/29 12:35:12;;;;;;;8.13;6.50;;;9.50;99.90;;;;;;5113110;28;20501;-63
2022/11/29 12:37:53;;;;;;;10.05;6.53;;;9.50;99.90;;;;;;5112796;28;20490;-62
2022/11/29 12:40:28;;;;;;;9.13;6.78;;;9.40;99.90;;;;;;5113316;28;20040;-63
2022/11/29 12:43:14;;;;;;;7.07;6.38;;;9.40;99.90;;;;;;5113143;28;20126;-63
2022/11/29 12:45:54;;;;;;;8.65;6.68;;;9.40;99.90;;;;;;5112987;28;20054;-62
2022/11/29 12:48:38;;;;;;;8.80;7.68;;;9.30;99.90;;;;;;5112340;28;20040;-62
2022/11/29 12:51:17;;;;;;;9.18;6.80;;;9.30;99.90;;;;;;5113270;28;20036;-63
2022/11/29 12:53:54;;;;;;;10.80;7.65;;;9.30;99.90;;;;;;5112975;28;20388;-62
2022/11/29 12:56:25;;;;;;;8.90;7.47;;;9.30;99.90;;;;;;5112667;28;20618;-63
2022/11/29 12:59:12;;;;;;;9.25;7.25;;;9.10;99.90;;;;;;5112842;28;20062;-63
2022/11/29 13:01:53;;;;;;;10.10;7.75;;;9.10;99.90;;;;;;5112482;28;20067;-63
2022/11/29 13:04:40;;;;;;;9.45;8.20;;;9.10;99.90;;;;;;5112621;28;20149;-63
2022/11/29 13:07:11;;;;;;;11.30;8.48;;;9.10;99.90;;;;;;5112862;28;20047;-62
2022/11/29 13:09:43;;;;;;;11.40;8.68;;;9.00;99.90;;;;;;5113200;28;20048;-63
2022/11/29 13:12:26;;;;;;;12.07;8.25;;;9.00;99.90;;;;;;5113055;28;20123;-63
2022/11/29 13:15:10;;;;;;;9.88;8.88;;;9.00;99.90;;;;;;5113229;28;20123;-62
2022/11/29 13:17:57;;;;;;;11.15;8.75;;;8.90;99.90;;;;;;5112850;28;20042;-63
2022/11/29 13:20:29;;;;;;;9.15;7.82;;;8.90;99.90;;;;;;5112508;28;20044;-63
2022/11/29 13:23:02;;;;;;;8.50;7.47;;;8.90;99.90;;;;;;5112546;28;20047;-62
2022/11/29 13:25:41;;;;;;;9.45;8.43;;;8.80;99.90;;;;;;5094423;28;20079;-62